createdAt,value
2018-02-07T15:37:58.647Z,5.75
2018-02-07T15:40:27.208Z,6.35
2018-02-07T15:42:54.874Z,5.53
2018-02-07T15:45:22.584Z,5.30
2018-02-07T15:47:50.555Z,5.18
2018-02-07T15:50:19.555Z,6.28
2018-02-07T15:52:47.237Z,6.70
2018-02-07T15:55:18.910Z,7.53
2018-02-07T15:57:46.572Z,7.05
2018-02-07T16:00:14.386Z,7.97
2018-02-07T16:02:56.307Z,7.80
2018-02-07T16:05:23.999Z,6.18
2018-02-07T16:07:51.627Z,6.32
2018-02-07T16:10:25.943Z,5.78
2018-02-07T16:12:53.947Z,5.05
2018-02-07T16:15:21.630Z,5.12
2018-02-07T16:17:49.293Z,5.18
2018-02-07T16:20:16.996Z,5.68
2018-02-07T16:22:44.660Z,6.32
2018-02-07T16:25:13.272Z,5.40
2018-02-07T16:27:41.515Z,4.90
2018-02-07T16:30:10.529Z,8.35
2018-02-07T16:32:38.217Z,8.85
2018-02-07T16:35:12.521Z,9.90
2018-02-07T16:37:41.333Z,9.48
2018-02-07T16:40:09.125Z,7.65
2018-02-07T16:42:41.854Z,6.85
2018-02-07T16:45:28.708Z,6.43
2018-02-07T16:47:56.542Z,7.20
2018-02-07T16:50:24.469Z,6.85
2018-02-07T16:52:52.588Z,7.20
2018-02-07T16:55:21.024Z,8.45
2018-02-07T16:57:49.598Z,8.90
2018-02-07T17:00:17.279Z,7.45
2018-02-07T17:02:45.018Z,8.95
2018-02-07T17:05:12.687Z,8.40
2018-02-07T17:07:40.331Z,7.43
2018-02-07T17:10:08.002Z,9.68
2018-02-07T17:12:36.016Z,8.55
2018-02-07T17:15:03.682Z,7.68
2018-02-07T17:17:31.351Z,7.82
2018-02-07T17:19:59.087Z,8.30
2018-02-07T17:22:26.963Z,8.27
2018-02-07T17:24:54.624Z,8.50
2018-02-07T17:27:23.072Z,7.45
2018-02-07T17:29:50.702Z,7.95
2018-02-07T17:32:19.462Z,8.85
2018-02-07T17:34:47.058Z,10.15
2018-02-07T17:37:15.440Z,8.57
2018-02-07T17:39:43.360Z,9.80
2018-02-07T17:42:12.110Z,10.90
2018-02-07T17:44:39.756Z,11.48
2018-02-07T17:47:07.912Z,10.02
2018-02-07T17:49:35.559Z,9.20
2018-02-07T17:52:03.298Z,10.95
2018-02-07T17:54:31.354Z,9.55
2018-02-07T17:56:58.995Z,9.25
2018-02-07T17:59:26.582Z,8.77
2018-02-07T18:01:54.217Z,8.68
2018-02-07T18:04:21.878Z,8.70
2018-02-07T18:06:49.516Z,8.18
2018-02-07T18:09:17.546Z,9.00
2018-02-07T18:11:45.297Z,8.93
2018-02-07T18:14:12.887Z,9.55
2018-02-07T18:16:41.017Z,9.35
2018-02-07T18:19:08.696Z,11.95
2018-02-07T18:21:37.000Z,12.63
2018-02-07T18:24:05.324Z,12.70
2018-02-07T18:26:33.477Z,11.60
2018-02-07T18:29:01.093Z,9.55
2018-02-07T18:31:28.908Z,8.32
2018-02-07T18:33:56.535Z,7.57
2018-02-07T18:36:24.210Z,7.78
2018-02-07T18:38:51.834Z,7.85
2018-02-07T18:41:19.453Z,7.18
2018-02-07T18:43:47.210Z,7.40
2018-02-07T18:46:15.075Z,7.68
2018-02-07T18:48:42.721Z,8.30
2018-02-07T18:51:10.330Z,8.13
2018-02-07T18:53:38.362Z,9.77
2018-02-07T18:56:05.977Z,11.30
2018-02-07T18:58:33.660Z,13.80
2018-02-07T19:01:01.348Z,13.13
2018-02-07T19:03:28.947Z,13.23
2018-02-07T19:05:56.692Z,12.35
2018-02-07T19:08:24.339Z,13.43
2018-02-07T19:10:51.927Z,11.68
2018-02-07T19:13:19.587Z,11.40
2018-02-07T19:15:47.232Z,11.15
2018-02-07T19:18:14.848Z,11.30
2018-02-07T19:20:42.544Z,9.68
2018-02-07T19:23:10.188Z,9.15
2018-02-07T19:25:37.840Z,9.40
2018-02-07T19:28:05.423Z,7.93
2018-02-07T19:30:33.065Z,8.30
2018-02-07T19:33:01.065Z,8.45
2018-02-07T19:35:28.973Z,9.27
2018-02-07T19:37:56.594Z,11.40
2018-02-07T19:40:24.192Z,14.93
2018-02-07T19:42:51.826Z,10.80
2018-02-07T19:45:20.021Z,17.52
2018-02-07T19:47:47.625Z,16.62
2018-02-07T19:50:15.225Z,14.73
2018-02-07T19:52:42.891Z,11.48
2018-02-07T19:55:10.508Z,11.50
2018-02-07T19:57:38.215Z,10.70
2018-02-07T20:00:06.172Z,10.63
2018-02-07T20:02:33.786Z,11.43
2018-02-07T20:05:01.500Z,12.60
2018-02-07T20:07:29.383Z,12.43
2018-02-07T20:09:56.958Z,13.48
2018-02-07T20:12:24.611Z,13.50
2018-02-07T20:14:52.185Z,14.25
2018-02-07T20:17:19.772Z,16.02
2018-02-07T20:19:47.465Z,19.30
2018-02-07T20:22:15.168Z,20.48
2018-02-07T20:24:42.819Z,19.60
2018-02-07T20:27:10.651Z,18.00
2018-02-07T20:29:38.278Z,18.20
2018-02-07T20:32:06.196Z,18.62
2018-02-07T20:34:34.305Z,18.05
2018-02-07T20:37:01.996Z,17.80
2018-02-07T20:39:29.923Z,18.70
2018-02-07T20:41:57.565Z,20.58
2018-02-07T20:44:25.598Z,18.25
2018-02-07T20:46:53.316Z,17.55
2018-02-07T20:49:21.014Z,15.20
2018-02-07T20:51:48.678Z,11.93
2018-02-07T20:54:16.323Z,13.13
2018-02-07T20:56:44.005Z,10.95
2018-02-07T20:59:13.224Z,14.38
2018-02-07T21:01:41.715Z,16.95
2018-02-07T21:04:09.990Z,17.52
2018-02-07T21:06:37.662Z,15.90
2018-02-07T21:09:05.424Z,17.98
2018-02-07T21:11:33.047Z,16.05
2018-02-07T21:14:00.657Z,16.50
2018-02-07T21:16:28.431Z,18.10
2018-02-07T21:18:56.076Z,18.12
2018-02-07T21:21:23.702Z,16.27
2018-02-07T21:23:51.381Z,17.17
2018-02-07T21:26:19.091Z,17.50
2018-02-07T21:28:47.018Z,17.48
2018-02-07T21:31:14.642Z,17.58
2018-02-07T21:33:42.234Z,16.30
2018-02-07T21:36:10.043Z,16.67
2018-02-07T21:38:37.925Z,16.55
2018-02-07T21:41:05.519Z,17.40
2018-02-07T21:43:33.166Z,18.55
2018-02-07T21:46:00.756Z,17.35
2018-02-07T21:48:28.409Z,16.35
2018-02-07T21:51:00.182Z,16.45
2018-02-07T21:53:33.858Z,16.90
2018-02-07T21:56:01.741Z,13.90
2018-02-07T21:58:29.379Z,14.65
2018-02-07T22:00:57.281Z,15.00
2018-02-07T22:03:24.922Z,14.80
2018-02-07T22:05:52.538Z,13.52
2018-02-07T22:08:20.496Z,11.98
2018-02-07T22:10:48.209Z,12.15
2018-02-07T22:13:15.815Z,13.27
2018-02-07T22:15:43.463Z,13.15
2018-02-07T22:18:11.084Z,12.90
2018-02-07T22:20:38.678Z,13.70
2018-02-07T22:23:06.251Z,11.98
2018-02-07T22:25:34.224Z,13.75
2018-02-07T22:28:01.811Z,12.15
2018-02-07T22:30:29.623Z,12.60
2018-02-07T22:32:57.196Z,12.65
2018-02-07T22:35:24.770Z,12.48
2018-02-07T22:37:52.393Z,14.02
2018-02-07T22:40:20.121Z,15.30
2018-02-07T22:42:47.765Z,17.70
2018-02-07T22:45:15.371Z,16.33
2018-02-07T22:47:42.938Z,16.65
2018-02-07T22:50:11.040Z,15.60
2018-02-07T22:52:38.619Z,14.35
2018-02-07T22:55:06.261Z,14.18
2018-02-07T22:57:33.897Z,15.93
2018-02-07T23:00:01.550Z,14.55
2018-02-07T23:02:29.257Z,14.30
2018-02-07T23:04:56.833Z,15.65
2018-02-07T23:07:24.530Z,15.75
2018-02-07T23:09:52.294Z,14.45
2018-02-07T23:12:20.090Z,15.35
2018-02-07T23:14:47.765Z,13.40
2018-02-07T23:17:15.419Z,13.82
2018-02-07T23:19:43.262Z,15.30
2018-02-07T23:22:11.511Z,13.75
2018-02-07T23:24:39.435Z,14.07
2018-02-07T23:27:07.034Z,13.75
2018-02-07T23:29:34.654Z,12.32
2018-02-07T23:32:02.255Z,12.00
2018-02-07T23:34:31.133Z,12.52
2018-02-07T23:39:32.720Z,12.80
2018-02-07T23:42:00.321Z,12.77
2018-02-07T23:44:28.936Z,12.95
2018-02-07T23:46:57.380Z,10.93
2018-02-07T23:49:25.053Z,10.88
2018-02-07T23:51:52.667Z,10.93
2018-02-07T23:54:20.347Z,12.25
2018-02-07T23:56:47.962Z,11.18
2018-02-07T23:59:15.707Z,12.02
